sensor_id;sensor_type;location;lat;lon;timestamp;pressure;altitude;pressure_sealevel;temperature;humidity
44663;BME280;30381;52.754;18.258;2023-05-22T00:01:31;101204.87;;;12.40;80.97
44663;BME280;30381;52.754;18.258;2023-05-22T00:04:03;101203.08;;;12.38;81.07
44663;BME280;30381;52.754;18.258;2023-05-22T00:06:36;101202.34;;;12.34;81.34
44663;BME280;30381;52.754;18.258;2023-05-22T00:09:24;101199.95;;;12.32;81.53
44663;BME280;30381;52.754;18.258;2023-05-22T00:12:05;101199.50;;;12.32;81.59
44663;BME280;30381;52.754;18.258;2023-05-22T00:15:01;101197.38;;;12.29;81.80
44663;BME280;30381;52.754;18.258;2023-05-22T00:17:30;101201.63;;;12.26;82.00
44663;BME280;30381;52.754;18.258;2023-05-22T00:19:59;101198.30;;;12.24;82.17
44663;BME280;30381;52.754;18.258;2023-05-22T00:22:35;101197.06;;;12.21;82.31
44663;BME280;30381;52.754;18.258;2023-05-22T00:25:12;101195.88;;;12.19;82.47
44663;BME280;30381;52.754;18.258;2023-05-22T00:28:01;101196.98;;;12.15;82.60
44663;BME280;30381;52.754;18.258;2023-05-22T00:42:24;101186.98;;;11.89;83.58
44663;BME280;30381;52.754;18.258;2023-05-22T00:44:54;101186.77;;;11.86;83.66
44663;BME280;30381;52.754;18.258;2023-05-22T00:56:20;101182.27;;;11.73;84.77
44663;BME280;30381;52.754;18.258;2023-05-22T00:59:02;101182.05;;;11.72;85.42
44663;BME280;30381;52.754;18.258;2023-05-22T01:01:43;101184.65;;;11.72;85.84
44663;BME280;30381;52.754;18.258;2023-05-22T01:04:17;101181.73;;;11.69;85.88
44663;BME280;30381;52.754;18.258;2023-05-22T01:09:59;101183.48;;;11.63;85.91
44663;BME280;30381;52.754;18.258;2023-05-22T01:16:09;101176.56;;;11.56;86.36
44663;BME280;30381;52.754;18.258;2023-05-22T01:19:21;101177.23;;;11.53;86.92
44663;BME280;30381;52.754;18.258;2023-05-22T01:56:14;101169.46;;;11.92;89.23
44663;BME280;30381;52.754;18.258;2023-05-22T02:07:23;101169.30;;;11.95;89.67
44663;BME280;30381;52.754;18.258;2023-05-22T02:10:43;101170.83;;;11.96;89.77
44663;BME280;30381;52.754;18.258;2023-05-22T02:14:03;101167.20;;;11.96;89.75
44663;BME280;30381;52.754;18.258;2023-05-22T02:17:02;101162.36;;;11.96;90.14
44663;BME280;30381;52.754;18.258;2023-05-22T02:19:38;101161.66;;;11.95;90.32
44663;BME280;30381;52.754;18.258;2023-05-22T02:22:19;101160.52;;;11.96;90.37
44663;BME280;30381;52.754;18.258;2023-05-22T02:25:07;101163.83;;;11.95;90.45
44663;BME280;30381;52.754;18.258;2023-05-22T02:27:54;101163.55;;;11.95;90.56
44663;BME280;30381;52.754;18.258;2023-05-22T02:30:35;101162.06;;;11.94;90.64
44663;BME280;30381;52.754;18.258;2023-05-22T02:33:20;101162.73;;;11.95;90.92
44663;BME280;30381;52.754;18.258;2023-05-22T02:35:55;101160.77;;;11.94;90.90
44663;BME280;30381;52.754;18.258;2023-05-22T02:39:02;101160.40;;;11.94;91.06
44663;BME280;30381;52.754;18.258;2023-05-22T02:42:00;101164.40;;;11.94;91.27
44663;BME280;30381;52.754;18.258;2023-05-22T02:44:35;101162.03;;;11.93;91.33
44663;BME280;30381;52.754;18.258;2023-05-22T02:47:30;101161.87;;;11.93;91.45
44663;BME280;30381;52.754;18.258;2023-05-22T02:50:51;101157.58;;;11.93;91.70
44663;BME280;30381;52.754;18.258;2023-05-22T03:16:39;101155.27;;;12.19;92.46
44663;BME280;30381;52.754;18.258;2023-05-22T03:19:33;101152.41;;;12.24;92.58
44663;BME280;30381;52.754;18.258;2023-05-22T03:34:34;101146.84;;;13.57;92.41
44663;BME280;30381;52.754;18.258;2023-05-22T03:37:20;101147.49;;;13.57;91.89
44663;BME280;30381;52.754;18.258;2023-05-22T03:40:00;101147.14;;;13.58;91.66
44663;BME280;30381;52.754;18.258;2023-05-22T04:36:35;101133.58;;;18.27;82.38
44663;BME280;30381;52.754;18.258;2023-05-22T04:39:23;101130.13;;;18.26;82.08
44663;BME280;30381;52.754;18.258;2023-05-22T04:41:54;101135.01;;;18.20;81.93
44663;BME280;30381;52.754;18.258;2023-05-22T04:44:20;101133.46;;;18.21;81.48
44663;BME280;30381;52.754;18.258;2023-05-22T04:49:41;101133.13;;;18.67;80.44
44663;BME280;30381;52.754;18.258;2023-05-22T04:52:10;101131.73;;;19.12;80.06
44663;BME280;30381;52.754;18.258;2023-05-22T04:54:38;101132.20;;;19.67;78.56
44663;BME280;30381;52.754;18.258;2023-05-22T04:57:04;101124.81;;;20.31;77.86
44663;BME280;30381;52.754;18.258;2023-05-22T04:59:34;101124.36;;;21.07;77.26
44663;BME280;30381;52.754;18.258;2023-05-22T05:02:05;101124.08;;;21.93;76.81
44663;BME280;30381;52.754;18.258;2023-05-22T05:04:32;101128.01;;;22.74;75.78
44663;BME280;30381;52.754;18.258;2023-05-22T05:23:45;101122.19;;;27.19;65.96
44663;BME280;30381;52.754;18.258;2023-05-22T05:26:23;101126.23;;;27.44;63.42
44663;BME280;30381;52.754;18.258;2023-05-22T05:28:59;101122.84;;;27.47;62.39
44663;BME280;30381;52.754;18.258;2023-05-22T05:31:26;101124.69;;;27.51;60.96
44663;BME280;30381;52.754;18.258;2023-05-22T05:34:28;101127.32;;;27.69;60.19
44663;BME280;30381;52.754;18.258;2023-05-22T05:37:16;101129.15;;;27.86;59.41
44663;BME280;30381;52.754;18.258;2023-05-22T05:39:53;101127.00;;;27.91;58.70
44663;BME280;30381;52.754;18.258;2023-05-22T05:42:24;101123.91;;;28.22;58.35
44663;BME280;30381;52.754;18.258;2023-05-22T05:44:56;101125.20;;;28.62;57.78
44663;BME280;30381;52.754;18.258;2023-05-22T05:47:39;101121.51;;;29.03;55.46
44663;BME280;30381;52.754;18.258;2023-05-22T05:50:29;101114.53;;;29.31;55.40
44663;BME280;30381;52.754;18.258;2023-05-22T05:52:56;101114.91;;;29.56;53.83
44663;BME280;30381;52.754;18.258;2023-05-22T05:55:44;101115.23;;;29.69;52.60
44663;BME280;30381;52.754;18.258;2023-05-22T05:58:20;101116.09;;;29.81;51.38
44663;BME280;30381;52.754;18.258;2023-05-22T06:00:50;101114.16;;;29.76;50.42
44663;BME280;30381;52.754;18.258;2023-05-22T06:03:18;101112.52;;;29.79;50.07
44663;BME280;30381;52.754;18.258;2023-05-22T06:05:51;101111.73;;;29.90;49.56
44663;BME280;30381;52.754;18.258;2023-05-22T06:08:53;101110.73;;;29.98;47.62
44663;BME280;30381;52.754;18.258;2023-05-22T06:15:23;101106.41;;;29.72;45.47
44663;BME280;30381;52.754;18.258;2023-05-22T06:25:23;101099.59;;;30.05;43.71
44663;BME280;30381;52.754;18.258;2023-05-22T06:28:34;101101.57;;;30.13;43.47
44663;BME280;30381;52.754;18.258;2023-05-22T06:31:52;101105.45;;;29.95;41.49
44663;BME280;30381;52.754;18.258;2023-05-22T06:34:55;101106.52;;;29.76;41.01
44663;BME280;30381;52.754;18.258;2023-05-22T06:37:49;101108.90;;;29.54;40.81
44663;BME280;30381;52.754;18.258;2023-05-22T06:40:28;101109.19;;;29.33;40.79
44663;BME280;30381;52.754;18.258;2023-05-22T06:43:37;101108.16;;;29.48;41.22
44663;BME280;30381;52.754;18.258;2023-05-22T06:47:20;101106.36;;;29.62;39.88
44663;BME280;30381;52.754;18.258;2023-05-22T06:55:39;101099.50;;;29.64;39.00
44663;BME280;30381;52.754;18.258;2023-05-22T07:01:14;101092.64;;;30.10;38.17
44663;BME280;30381;52.754;18.258;2023-05-22T07:03:48;101093.61;;;30.05;37.16
44663;BME280;30381;52.754;18.258;2023-05-22T07:06:55;101097.04;;;29.88;36.95
44663;BME280;30381;52.754;18.258;2023-05-22T07:09:47;101092.69;;;29.82;37.26
44663;BME280;30381;52.754;18.258;2023-05-22T07:12:53;101091.86;;;29.81;37.21
44663;BME280;30381;52.754;18.258;2023-05-22T07:15:44;101093.77;;;29.94;37.06
44663;BME280;30381;52.754;18.258;2023-05-22T07:18:21;101093.17;;;30.00;37.43
44663;BME280;30381;52.754;18.258;2023-05-22T07:21:26;101090.31;;;30.23;37.68
44663;BME280;30381;52.754;18.258;2023-05-22T07:24:26;101088.65;;;30.56;37.32
44663;BME280;30381;52.754;18.258;2023-05-22T07:27:29;101094.13;;;30.61;35.98
44663;BME280;30381;52.754;18.258;2023-05-22T07:31:01;101092.21;;;30.41;35.26
44663;BME280;30381;52.754;18.258;2023-05-22T07:34:19;101092.02;;;30.22;35.26
44663;BME280;30381;52.754;18.258;2023-05-22T07:37:32;101093.16;;;30.17;35.35
44663;BME280;30381;52.754;18.258;2023-05-22T07:40:26;101098.05;;;30.10;34.68
44663;BME280;30381;52.754;18.258;2023-05-22T07:42:53;101100.73;;;29.82;34.05
44663;BME280;30381;52.754;18.258;2023-05-22T07:45:56;101099.14;;;29.68;32.99
44663;BME280;30381;52.754;18.258;2023-05-22T07:48:39;101097.27;;;29.51;32.73
44663;BME280;30381;52.754;18.258;2023-05-22T07:51:32;101093.58;;;29.42;31.87
44663;BME280;30381;52.754;18.258;2023-05-22T07:54:27;101093.85;;;29.17;32.05
44663;BME280;30381;52.754;18.258;2023-05-22T07:57:27;101092.73;;;29.23;32.30
44663;BME280;30381;52.754;18.258;2023-05-22T08:00:12;101092.17;;;29.19;31.52
44663;BME280;30381;52.754;18.258;2023-05-22T08:03:38;101091.99;;;29.03;31.26
44663;BME280;30381;52.754;18.258;2023-05-22T08:06:26;101090.68;;;28.85;31.01
44663;BME280;30381;52.754;18.258;2023-05-22T08:09:14;101087.03;;;28.55;31.23
44663;BME280;30381;52.754;18.258;2023-05-22T08:12:35;101086.55;;;28.60;31.26
44663;BME280;30381;52.754;18.258;2023-05-22T13:47:14;100858.48;;;27.44;29.30
44663;BME280;30381;52.754;18.258;2023-05-22T14:02:24;100844.39;;;27.22;30.25
44663;BME280;30381;52.754;18.258;2023-05-22T14:05:32;100843.40;;;27.24;29.95
44663;BME280;30381;52.754;18.258;2023-05-22T14:08:13;100843.96;;;27.17;29.91
44663;BME280;30381;52.754;18.258;2023-05-22T14:10:53;100839.19;;;27.14;30.04
44663;BME280;30381;52.754;18.258;2023-05-22T14:13:20;100836.73;;;27.30;30.27
44663;BME280;30381;52.754;18.258;2023-05-22T14:15:50;100835.15;;;27.54;30.16
44663;BME280;30381;52.754;18.258;2023-05-22T14:18:21;100834.05;;;27.54;29.78
44663;BME280;30381;52.754;18.258;2023-05-22T14:20:51;100832.52;;;27.46;29.92
44663;BME280;30381;52.754;18.258;2023-05-22T14:23:21;100833.02;;;27.37;29.98
44663;BME280;30381;52.754;18.258;2023-05-22T14:25:55;100833.65;;;27.19;29.83
44663;BME280;30381;52.754;18.258;2023-05-22T14:32:15;100828.40;;;26.88;30.14
44663;BME280;30381;52.754;18.258;2023-05-22T14:34:42;100827.42;;;26.81;29.93
44663;BME280;30381;52.754;18.258;2023-05-22T14:37:10;100831.16;;;26.59;30.01
44663;BME280;30381;52.754;18.258;2023-05-22T14:39:37;100831.64;;;26.51;30.24
44663;BME280;30381;52.754;18.258;2023-05-22T14:42:06;100829.57;;;26.53;30.22
44663;BME280;30381;52.754;18.258;2023-05-22T14:44:32;100822.64;;;26.60;30.54
44663;BME280;30381;52.754;18.258;2023-05-22T14:46:59;100818.85;;;26.75;30.49
44663;BME280;30381;52.754;18.258;2023-05-22T14:49:26;100822.48;;;26.71;30.11
44663;BME280;30381;52.754;18.258;2023-05-22T14:51:54;100822.29;;;26.49;30.14
44663;BME280;30381;52.754;18.258;2023-05-22T14:54:30;100819.46;;;26.48;30.37
44663;BME280;30381;52.754;18.258;2023-05-22T14:56:56;100821.20;;;26.45;30.52
44663;BME280;30381;52.754;18.258;2023-05-22T14:59:25;100820.73;;;26.29;30.55
44663;BME280;30381;52.754;18.258;2023-05-22T15:01:52;100819.11;;;26.13;30.81
44663;BME280;30381;52.754;18.258;2023-05-22T15:04:23;100814.51;;;25.95;30.87
44663;BME280;30381;52.754;18.258;2023-05-22T15:06:50;100814.67;;;25.86;31.10
44663;BME280;30381;52.754;18.258;2023-05-22T15:09:18;100808.77;;;26.04;31.22
44663;BME280;30381;52.754;18.258;2023-05-22T15:11:45;100812.05;;;26.30;31.33
44663;BME280;30381;52.754;18.258;2023-05-22T15:14:23;100806.48;;;26.46;30.93
44663;BME280;30381;52.754;18.258;2023-05-22T15:16:58;100804.05;;;26.59;30.92
44663;BME280;30381;52.754;18.258;2023-05-22T15:19:26;100805.73;;;26.55;30.57
44663;BME280;30381;52.754;18.258;2023-05-22T15:22:00;100805.04;;;26.49;30.58
44663;BME280;30381;52.754;18.258;2023-05-22T15:27:29;100798.29;;;26.39;30.71
